createdAt,value
2018-10-06T00:00:17.457Z,10.67
2018-10-06T00:02:46.766Z,10.66
2018-10-06T00:05:15.898Z,10.67
2018-10-06T00:07:44.992Z,10.66
2018-10-06T00:10:14.054Z,10.62
2018-10-06T00:12:43.248Z,10.64
2018-10-06T00:15:12.300Z,10.61
2018-10-06T00:17:41.632Z,10.55
2018-10-06T00:20:11.240Z,10.46
2018-10-06T00:22:40.485Z,10.46
2018-10-06T00:25:09.544Z,10.42
2018-10-06T00:27:38.632Z,10.34
2018-10-06T00:30:07.904Z,10.35
2018-10-06T00:32:37.481Z,10.40
2018-10-06T00:35:06.540Z,10.36
2018-10-06T00:37:35.625Z,10.32
2018-10-06T00:40:04.744Z,10.33
2018-10-06T00:42:34.136Z,10.27
2018-10-06T00:45:03.220Z,10.30
2018-10-06T00:47:33.236Z,10.28
2018-10-06T00:50:02.278Z,10.28
2018-10-06T00:52:31.376Z,10.23
2018-10-06T00:55:00.424Z,10.14
2018-10-06T00:57:29.464Z,10.12
2018-10-06T00:59:58.528Z,10.07
2018-10-06T01:02:27.562Z,9.87
2018-10-06T01:04:56.915Z,9.93
2018-10-06T01:07:25.999Z,9.89
2018-10-06T01:09:55.056Z,9.96
2018-10-06T01:12:24.157Z,9.99
2018-10-06T01:14:53.204Z,9.95
2018-10-06T01:17:22.213Z,9.96
2018-10-06T01:19:51.292Z,9.96
2018-10-06T01:22:20.336Z,9.94
2018-10-06T01:24:49.431Z,9.99
2018-10-06T01:27:18.512Z,9.97
2018-10-06T01:29:47.680Z,9.96
2018-10-06T01:32:16.715Z,9.98
2018-10-06T01:34:45.812Z,9.85
2018-10-06T01:37:14.887Z,9.88
2018-10-06T01:39:43.952Z,9.74
2018-10-06T01:42:13.412Z,9.63
2018-10-06T01:44:42.477Z,9.66
2018-10-06T01:47:11.573Z,9.68
2018-10-06T01:49:40.979Z,9.74
2018-10-06T01:52:10.032Z,9.72
2018-10-06T01:54:39.116Z,9.69
2018-10-06T01:57:08.212Z,9.71
2018-10-06T01:59:37.264Z,9.66
2018-10-06T02:02:06.628Z,9.67
2018-10-06T02:04:35.724Z,9.59
2018-10-06T02:07:05.176Z,9.40
2018-10-06T02:09:34.200Z,9.48
2018-10-06T02:12:03.344Z,9.49
2018-10-06T02:14:32.384Z,9.47
2018-10-06T02:17:01.396Z,9.46
2018-10-06T02:19:30.504Z,9.51
2018-10-06T02:21:59.629Z,9.50
2018-10-06T02:24:28.668Z,9.49
2018-10-06T02:26:57.688Z,9.47
2018-10-06T02:29:26.731Z,9.44
2018-10-06T02:31:55.818Z,9.46
2018-10-06T02:34:24.856Z,9.43
2018-10-06T02:36:53.944Z,9.34
2018-10-06T02:39:22.927Z,9.35
2018-10-06T02:41:52.068Z,9.32
2018-10-06T02:44:21.188Z,9.32
2018-10-06T02:46:50.272Z,9.29
2018-10-06T02:49:19.368Z,9.32
2018-10-06T02:51:48.416Z,9.34
2018-10-06T02:54:17.428Z,9.31
2018-10-06T02:56:46.492Z,9.22
2018-10-06T02:59:15.565Z,9.09
2018-10-06T03:01:44.689Z,9.08
2018-10-06T03:04:13.731Z,9.07
2018-10-06T03:06:42.820Z,9.08
2018-10-06T03:09:12.088Z,9.12
2018-10-06T03:11:41.248Z,9.15
2018-10-06T03:14:10.312Z,9.11
2018-10-06T03:16:39.388Z,9.12
2018-10-06T03:19:08.472Z,9.19
2018-10-06T03:21:37.524Z,9.13
2018-10-06T03:24:06.588Z,8.93
2018-10-06T03:26:35.896Z,8.78
2018-10-06T03:29:04.969Z,8.80
2018-10-06T03:31:34.040Z,8.84
2018-10-06T03:34:03.185Z,8.97
2018-10-06T03:36:32.276Z,9.03
2018-10-06T03:39:01.488Z,9.12
2018-10-06T03:41:30.567Z,9.11
2018-10-06T03:43:59.644Z,9.12
2018-10-06T03:46:28.725Z,9.05
2018-10-06T03:48:57.796Z,9.02
2018-10-06T03:51:26.812Z,9.04
2018-10-06T03:53:55.952Z,9.06
2018-10-06T03:56:25.041Z,8.97
2018-10-06T03:58:54.148Z,8.71
2018-10-06T04:01:23.901Z,8.64
2018-10-06T04:03:52.981Z,8.67
2018-10-06T04:06:22.044Z,8.78
2018-10-06T04:08:51.134Z,8.86
2018-10-06T04:11:20.248Z,8.83
2018-10-06T04:13:49.285Z,8.83
2018-10-06T04:16:18.420Z,8.86
2018-10-06T04:18:47.532Z,8.80
2018-10-06T04:21:16.572Z,8.75
2018-10-06T04:23:45.930Z,8.72
2018-10-06T04:26:15.004Z,8.64
2018-10-06T04:28:44.045Z,8.58
2018-10-06T04:31:13.138Z,8.48
2018-10-06T04:33:42.252Z,8.57
2018-10-06T04:36:11.409Z,8.62
2018-10-06T04:38:40.481Z,8.64
2018-10-06T04:41:09.580Z,8.68
2018-10-06T04:43:38.672Z,8.72
2018-10-06T04:46:07.688Z,8.78
2018-10-06T04:48:36.889Z,8.79
2018-10-06T04:51:05.920Z,8.80
2018-10-06T04:53:35.004Z,8.72
2018-10-06T04:56:04.149Z,8.69
2018-10-06T04:58:33.164Z,8.69
2018-10-06T05:01:02.304Z,8.65
2018-10-06T05:03:31.395Z,8.65
2018-10-06T05:06:00.404Z,8.66
2018-10-06T05:08:29.469Z,8.70
2018-10-06T05:10:58.625Z,8.68
2018-10-06T05:13:27.841Z,8.68
2018-10-06T05:15:56.884Z,8.68
2018-10-06T05:18:25.968Z,8.60
2018-10-06T05:20:55.052Z,8.58
2018-10-06T05:23:24.078Z,8.65
2018-10-06T05:25:53.164Z,8.57
2018-10-06T05:28:22.262Z,8.54
2018-10-06T05:30:51.324Z,8.51
2018-10-06T05:33:20.452Z,8.52
2018-10-06T05:35:49.496Z,8.48
2018-10-06T05:38:18.520Z,8.41
2018-10-06T05:40:47.840Z,8.44
2018-10-06T05:43:16.916Z,8.28
2018-10-06T05:45:45.948Z,8.23
2018-10-06T05:48:15.082Z,8.39
2018-10-06T05:50:44.136Z,8.44
2018-10-06T05:53:13.193Z,8.55
2018-10-06T05:55:42.336Z,8.55
2018-10-06T05:58:11.409Z,8.69
2018-10-06T06:00:40.505Z,8.72
2018-10-06T06:03:09.788Z,8.71
2018-10-06T06:05:38.923Z,8.73
2018-10-06T06:08:08.016Z,8.94
2018-10-06T06:10:37.054Z,9.05
2018-10-06T06:13:06.157Z,9.14
2018-10-06T06:15:35.442Z,9.22
2018-10-06T06:18:04.495Z,9.24
2018-10-06T06:20:33.600Z,9.38
2018-10-06T06:23:02.640Z,9.50
2018-10-06T06:25:31.786Z,9.63
2018-10-06T06:28:00.836Z,9.74
2018-10-06T06:30:29.928Z,9.87
2018-10-06T06:32:59.073Z,10.13
2018-10-06T06:35:28.060Z,10.46
2018-10-06T06:37:57.136Z,10.84
2018-10-06T06:40:26.320Z,10.94
2018-10-06T06:42:55.417Z,11.54
2018-10-06T06:45:24.509Z,12.54
2018-10-06T06:47:53.540Z,13.52
2018-10-06T06:50:22.746Z,14.58
2018-10-06T06:52:51.801Z,15.63
2018-10-06T06:55:20.911Z,16.51
2018-10-06T06:57:50.030Z,16.70
2018-10-06T07:00:19.123Z,16.94
2018-10-06T07:02:48.237Z,17.60
2018-10-06T07:05:21.435Z,17.64
2018-10-06T07:07:50.980Z,17.32
2018-10-06T07:10:20.600Z,19.72
2018-10-06T07:12:49.664Z,21.68
2018-10-06T07:15:18.764Z,23.35
2018-10-06T07:17:48.080Z,24.85
2018-10-06T07:20:17.104Z,25.91
2018-10-06T07:22:46.212Z,25.86
2018-10-06T07:25:15.308Z,26.07
2018-10-06T07:27:44.393Z,26.26
2018-10-06T07:30:13.492Z,26.52
2018-10-06T07:32:42.584Z,27.18
2018-10-06T07:35:11.683Z,26.85
2018-10-06T07:37:40.792Z,26.70
2018-10-06T07:40:09.869Z,26.44
2018-10-06T07:42:38.945Z,26.18
2018-10-06T07:45:08.236Z,25.27
2018-10-06T07:47:37.341Z,26.82
2018-10-06T07:50:06.536Z,27.83
2018-10-06T07:52:35.653Z,28.23
2018-10-06T07:55:04.828Z,28.57
2018-10-06T07:57:33.872Z,28.60
2018-10-06T08:00:02.932Z,28.00
2018-10-06T08:02:32.012Z,27.71
2018-10-06T08:05:01.104Z,28.74
2018-10-06T08:07:30.233Z,28.96
2018-10-06T08:09:59.525Z,29.47
2018-10-06T08:12:28.577Z,29.54
2018-10-06T08:14:57.692Z,29.01
2018-10-06T08:17:26.776Z,29.34
2018-10-06T08:19:55.872Z,29.51
2018-10-06T08:22:25.429Z,30.01
2018-10-06T08:24:54.472Z,30.83
2018-10-06T08:27:23.724Z,31.36
2018-10-06T08:29:52.856Z,30.79
2018-10-06T08:32:21.916Z,30.20
2018-10-06T08:34:51.013Z,30.84
2018-10-06T08:37:20.165Z,31.49
2018-10-06T08:39:49.204Z,30.40
2018-10-06T08:42:18.344Z,31.45
2018-10-06T08:44:47.452Z,30.62
2018-10-06T08:47:16.522Z,30.66
2018-10-06T08:49:45.704Z,32.63
2018-10-06T08:52:15.069Z,33.45
2018-10-06T08:54:44.165Z,32.37
2018-10-06T08:57:13.180Z,32.80
2018-10-06T08:59:42.232Z,33.09
2018-10-06T09:02:11.236Z,33.55
2018-10-06T09:04:40.284Z,33.68
2018-10-06T09:07:09.443Z,33.70
2018-10-06T09:09:38.552Z,34.32
2018-10-06T09:12:07.729Z,35.39
2018-10-06T09:14:36.768Z,30.01
2018-10-06T09:17:06.512Z,32.13
2018-10-06T09:19:35.584Z,32.39
2018-10-06T09:22:04.885Z,33.31
2018-10-06T09:24:34.005Z,32.72
2018-10-06T09:27:03.060Z,30.47
2018-10-06T09:29:32.089Z,31.83
2018-10-06T09:32:01.147Z,30.31
2018-10-06T09:34:30.224Z,30.27
2018-10-06T09:36:59.288Z,32.44
2018-10-06T09:39:28.348Z,33.94
2018-10-06T09:41:57.445Z,35.42
2018-10-06T09:44:26.456Z,34.16
2018-10-06T09:46:55.560Z,33.19
2018-10-06T09:49:24.992Z,32.39
2018-10-06T09:51:54.048Z,31.44
2018-10-06T09:54:23.151Z,29.45
2018-10-06T09:56:52.265Z,29.11
2018-10-06T09:59:21.314Z,27.70
2018-10-06T10:02:00.763Z,26.99
2018-10-06T10:04:29.868Z,27.46
2018-10-06T10:06:58.910Z,27.77
2018-10-06T10:09:28.144Z,27.16
2018-10-06T10:11:57.098Z,26.29
2018-10-06T10:14:26.276Z,26.64
2018-10-06T10:16:55.652Z,26.34
2018-10-06T10:19:24.648Z,25.34
2018-10-06T10:21:53.842Z,25.16
2018-10-06T10:24:22.837Z,24.79
2018-10-06T10:26:51.957Z,25.12
2018-10-06T10:29:21.081Z,25.07
2018-10-06T10:31:50.191Z,25.27
2018-10-06T10:34:19.363Z,25.48
2018-10-06T10:36:48.444Z,25.59
2018-10-06T10:39:17.671Z,25.35
2018-10-06T10:41:46.733Z,25.25
2018-10-06T10:44:15.906Z,25.87
2018-10-06T10:46:45.228Z,26.02
2018-10-06T10:49:14.532Z,26.18
2018-10-06T10:51:43.629Z,26.03
2018-10-06T10:54:12.701Z,25.69
2018-10-06T10:56:42.533Z,25.79
2018-10-06T10:59:11.620Z,25.51
2018-10-06T11:01:40.725Z,25.89
2018-10-06T11:04:10.493Z,26.33
2018-10-06T11:06:39.608Z,25.76
2018-10-06T11:09:09.032Z,25.31
2018-10-06T11:11:38.224Z,25.11
2018-10-06T11:14:07.496Z,25.45
2018-10-06T11:16:36.653Z,25.85
2018-10-06T11:19:05.726Z,25.83
2018-10-06T11:21:34.816Z,25.46
2018-10-06T11:24:03.916Z,26.14
2018-10-06T11:26:33.076Z,26.03
2018-10-06T11:29:02.117Z,26.32
2018-10-06T11:31:31.201Z,26.58
2018-10-06T11:34:00.248Z,26.45
2018-10-06T11:36:29.336Z,26.27
2018-10-06T11:38:58.484Z,26.24
2018-10-06T11:41:27.536Z,25.88
2018-10-06T11:43:56.641Z,25.88
2018-10-06T11:46:25.692Z,26.19
2018-10-06T11:48:54.948Z,26.64
2018-10-06T11:51:24.020Z,27.07
2018-10-06T11:53:53.124Z,26.78
2018-10-06T11:56:22.256Z,26.60
2018-10-06T11:58:51.520Z,26.94
2018-10-06T12:01:20.653Z,27.44
2018-10-06T12:03:49.748Z,27.77
2018-10-06T12:06:18.841Z,27.74
2018-10-06T12:08:48.016Z,28.18
2018-10-06T12:11:17.045Z,28.37
2018-10-06T12:13:46.085Z,28.26
2018-10-06T12:16:15.203Z,28.13
2018-10-06T12:18:44.321Z,28.09
2018-10-06T12:21:13.336Z,27.92
2018-10-06T12:23:42.550Z,27.55
2018-10-06T12:26:11.625Z,27.44
2018-10-06T12:28:40.676Z,27.42
2018-10-06T12:31:09.797Z,27.76
2018-10-06T12:33:38.893Z,26.87
2018-10-06T12:36:07.995Z,26.90
2018-10-06T12:38:37.056Z,27.34
2018-10-06T12:41:06.376Z,27.35
2018-10-06T12:43:35.460Z,27.62
2018-10-06T12:46:04.597Z,28.19
2018-10-06T12:48:33.668Z,28.13
2018-10-06T12:51:02.765Z,28.16
2018-10-06T12:53:31.924Z,28.19
2018-10-06T12:56:01.057Z,28.27
2018-10-06T12:58:30.152Z,27.71
2018-10-06T13:00:59.253Z,27.86
2018-10-06T13:03:28.440Z,28.40
2018-10-06T13:05:57.570Z,28.45
2018-10-06T13:08:27.216Z,28.79
2018-10-06T13:10:56.548Z,29.91
2018-10-06T13:13:25.600Z,30.38
2018-10-06T13:15:54.664Z,30.61
2018-10-06T13:18:23.724Z,30.16
2018-10-06T13:20:52.804Z,29.73
2018-10-06T13:23:21.844Z,29.14
2018-10-06T13:25:51.054Z,29.13
2018-10-06T13:28:20.117Z,28.83
2018-10-06T13:30:49.156Z,28.84
2018-10-06T13:33:18.312Z,28.04
2018-10-06T13:35:47.376Z,27.26
2018-10-06T13:38:16.496Z,26.86
2018-10-06T13:40:45.608Z,26.82
2018-10-06T13:43:14.632Z,26.63
2018-10-06T13:45:43.692Z,26.58
2018-10-06T13:48:12.792Z,26.36
2018-10-06T13:50:41.928Z,25.90
2018-10-06T13:53:11.025Z,25.62
2018-10-06T13:55:40.072Z,25.19
2018-10-06T13:58:09.261Z,24.98
2018-10-06T14:00:38.204Z,24.74
2018-10-06T14:03:07.316Z,24.46
2018-10-06T14:05:36.473Z,24.40
2018-10-06T14:08:05.597Z,24.12
2018-10-06T14:10:34.692Z,24.41
2018-10-06T14:13:03.796Z,24.34
2018-10-06T14:15:32.852Z,24.51
2018-10-06T14:18:02.025Z,24.76
2018-10-06T14:20:31.084Z,24.78
2018-10-06T14:23:00.176Z,24.94
2018-10-06T14:25:29.216Z,24.83
2018-10-06T14:27:58.328Z,24.72
2018-10-06T14:30:27.401Z,24.65
2018-10-06T14:32:56.485Z,24.19
2018-10-06T14:35:25.896Z,24.23
2018-10-06T14:37:54.957Z,23.92
2018-10-06T14:40:24.424Z,23.80
2018-10-06T14:42:53.488Z,23.77
2018-10-06T14:45:22.580Z,23.80
2018-10-06T14:47:51.665Z,23.88
2018-10-06T14:50:20.989Z,23.85
2018-10-06T14:52:50.081Z,23.89
2018-10-06T14:55:19.172Z,23.99
2018-10-06T14:57:48.289Z,23.99
2018-10-06T15:00:17.384Z,23.69
2018-10-06T15:02:46.454Z,23.60
2018-10-06T15:05:15.504Z,23.51
2018-10-06T15:07:44.649Z,23.47
2018-10-06T15:10:13.826Z,23.45
2018-10-06T15:12:42.828Z,23.38
2018-10-06T15:15:11.889Z,23.40
2018-10-06T15:17:41.006Z,23.21
2018-10-06T15:20:10.076Z,23.12
2018-10-06T15:22:39.145Z,23.02
2018-10-06T15:25:08.212Z,22.79
2018-10-06T15:27:37.271Z,22.55
2018-10-06T15:30:07.550Z,22.45
2018-10-06T15:32:36.884Z,22.34
2018-10-06T15:35:06.025Z,22.21
2018-10-06T15:37:35.105Z,22.23
2018-10-06T15:40:04.592Z,22.15
2018-10-06T15:42:34.133Z,22.10
2018-10-06T15:45:03.537Z,21.90
2018-10-06T15:47:32.609Z,21.99
2018-10-06T15:50:01.692Z,22.06
2018-10-06T15:52:31.308Z,22.01
2018-10-06T15:55:00.432Z,21.99
2018-10-06T15:57:29.500Z,21.89
2018-10-06T15:59:58.577Z,21.67
2018-10-06T16:02:27.667Z,21.64
2018-10-06T16:04:56.765Z,21.64
2018-10-06T16:07:25.824Z,21.75
2018-10-06T16:09:55.023Z,21.71
2018-10-06T16:12:24.143Z,21.66
2018-10-06T16:14:53.208Z,21.64
2018-10-06T16:17:22.753Z,21.48
2018-10-06T16:19:51.793Z,21.33
2018-10-06T16:22:20.852Z,21.15
2018-10-06T16:24:49.920Z,21.12
2018-10-06T16:27:19.084Z,21.09
2018-10-06T16:29:48.173Z,21.20
2018-10-06T16:32:17.245Z,21.17
2018-10-06T16:34:46.365Z,21.11
2018-10-06T16:37:15.543Z,20.99
2018-10-06T16:39:44.612Z,20.83
2018-10-06T16:42:13.753Z,20.85
2018-10-06T16:44:42.848Z,20.61
2018-10-06T16:47:11.948Z,20.54
2018-10-06T16:49:41.615Z,20.54
2018-10-06T16:52:10.677Z,20.62
2018-10-06T16:54:39.744Z,20.51
2018-10-06T16:57:08.783Z,20.46
2018-10-06T16:59:38.961Z,20.41
2018-10-06T17:02:08.126Z,20.44
2018-10-06T17:04:37.128Z,20.43
2018-10-06T17:07:06.324Z,20.33
2018-10-06T17:09:35.384Z,20.24
2018-10-06T17:12:04.513Z,20.21
2018-10-06T17:14:33.625Z,20.28
2018-10-06T17:17:02.741Z,20.27
2018-10-06T17:19:31.903Z,20.21
2018-10-06T17:22:00.908Z,20.07
2018-10-06T17:24:30.021Z,20.08
2018-10-06T17:26:59.112Z,20.11
2018-10-06T17:29:28.261Z,20.04
2018-10-06T17:31:57.405Z,19.90
2018-10-06T17:34:26.557Z,19.82
2018-10-06T17:36:55.692Z,19.83
2018-10-06T17:39:24.801Z,19.74
2018-10-06T17:41:54.008Z,19.66
2018-10-06T17:44:23.172Z,19.51
2018-10-06T17:46:52.218Z,19.51
2018-10-06T17:49:21.297Z,19.37
2018-10-06T17:51:50.388Z,19.26
2018-10-06T17:54:19.465Z,19.22
2018-10-06T17:56:48.562Z,19.09
2018-10-06T17:59:17.660Z,18.83
2018-10-06T18:01:46.751Z,18.81
2018-10-06T18:04:15.804Z,18.82
2018-10-06T18:06:44.901Z,18.79
2018-10-06T18:09:14.049Z,18.78
2018-10-06T18:11:43.096Z,18.66
2018-10-06T18:14:12.192Z,18.49
2018-10-06T18:16:41.290Z,18.33
2018-10-06T18:19:10.372Z,18.07
2018-10-06T18:21:39.481Z,17.93
2018-10-06T18:24:08.640Z,18.02
2018-10-06T18:26:37.705Z,18.05
2018-10-06T18:29:07.120Z,18.07
2018-10-06T18:31:36.177Z,18.09
2018-10-06T18:34:05.297Z,18.12
2018-10-06T18:36:34.806Z,18.02
2018-10-06T18:39:04.165Z,17.96
2018-10-06T18:41:33.224Z,17.89
2018-10-06T18:44:02.316Z,17.87
2018-10-06T18:46:31.660Z,17.80
2018-10-06T18:49:00.757Z,17.72
2018-10-06T18:51:29.887Z,17.74
2018-10-06T18:53:58.956Z,17.76
2018-10-06T18:56:28.057Z,17.72
2018-10-06T18:58:57.148Z,17.54
2018-10-06T19:01:26.780Z,17.46
2018-10-06T19:03:55.899Z,17.53
2018-10-06T19:06:24.973Z,17.53
2018-10-06T19:08:54.116Z,17.49
2018-10-06T19:11:23.244Z,17.27
2018-10-06T19:13:52.385Z,17.29
2018-10-06T19:16:21.504Z,17.23
2018-10-06T19:18:50.596Z,17.34
2018-10-06T19:21:19.656Z,17.27
2018-10-06T19:23:48.704Z,17.22
2018-10-06T19:26:17.724Z,17.11
2018-10-06T19:28:46.793Z,17.10
2018-10-06T19:31:15.932Z,17.05
2018-10-06T19:33:45.012Z,17.02
2018-10-06T19:36:14.114Z,16.86
2018-10-06T19:38:43.184Z,16.58
2018-10-06T19:41:12.260Z,16.56
2018-10-06T19:43:41.328Z,16.59
2018-10-06T19:46:10.384Z,16.57
2018-10-06T19:48:39.408Z,16.43
2018-10-06T19:51:08.565Z,16.33
2018-10-06T19:53:37.683Z,16.20
2018-10-06T19:56:06.933Z,16.10
2018-10-06T19:58:36.107Z,16.05
2018-10-06T20:01:05.149Z,16.02
2018-10-06T20:03:34.192Z,15.98
2018-10-06T20:06:03.361Z,15.86
2018-10-06T20:08:35.369Z,15.81
2018-10-06T20:11:04.680Z,15.47
2018-10-06T20:13:33.696Z,15.41
2018-10-06T20:16:03.020Z,15.51
2018-10-06T20:18:32.132Z,15.44
2018-10-06T20:21:01.209Z,15.42
2018-10-06T20:23:30.476Z,15.38
2018-10-06T20:25:59.572Z,15.38
2018-10-06T20:28:29.113Z,15.34
2018-10-06T20:30:58.172Z,15.34
2018-10-06T20:33:27.276Z,15.31
2018-10-06T20:35:56.360Z,15.21
2018-10-06T20:38:25.448Z,15.00
2018-10-06T20:40:54.756Z,14.76
2018-10-06T20:43:23.812Z,14.88
2018-10-06T20:45:52.880Z,14.88
2018-10-06T20:48:21.940Z,14.88
2018-10-06T20:50:51.024Z,14.90
2018-10-06T20:53:20.194Z,14.91
2018-10-06T20:55:49.252Z,14.86
2018-10-06T20:58:18.360Z,14.78
2018-10-06T21:00:47.477Z,14.73
2018-10-06T21:03:16.524Z,14.66
2018-10-06T21:05:45.608Z,14.61
2018-10-06T21:08:14.741Z,14.52
2018-10-06T21:10:43.823Z,14.24
2018-10-06T21:13:12.904Z,13.96
2018-10-06T21:15:42.025Z,14.13
2018-10-06T21:18:11.126Z,14.16
2018-10-06T21:20:40.384Z,14.04
2018-10-06T21:23:09.492Z,14.02
2018-10-06T21:25:38.612Z,14.08
2018-10-06T21:28:07.705Z,13.96
2018-10-06T21:30:36.984Z,13.95
2018-10-06T21:33:06.300Z,13.91
2018-10-06T21:35:35.776Z,13.93
2018-10-06T21:38:04.994Z,13.92
2018-10-06T21:40:34.062Z,13.90
2018-10-06T21:43:03.176Z,13.88
2018-10-06T21:45:32.261Z,13.87
2018-10-06T21:48:01.353Z,13.83
2018-10-06T21:50:30.692Z,13.74
2018-10-06T21:52:59.788Z,13.65
2018-10-06T21:55:28.860Z,13.55
2018-10-06T21:57:57.924Z,13.58
2018-10-06T22:00:27.101Z,13.55
2018-10-06T22:02:56.173Z,13.53
2018-10-06T22:05:25.516Z,13.53
2018-10-06T22:07:54.664Z,13.54
2018-10-06T22:10:23.742Z,13.53
2018-10-06T22:12:52.833Z,13.40
2018-10-06T22:15:22.010Z,13.33
2018-10-06T22:17:51.123Z,13.27
2018-10-06T22:20:20.260Z,13.24
2018-10-06T22:22:49.421Z,13.22
2018-10-06T22:25:18.537Z,13.19
2018-10-06T22:27:47.560Z,13.16
2018-10-06T22:30:16.616Z,13.16
2018-10-06T22:32:45.720Z,13.15
2018-10-06T22:35:14.780Z,13.11
2018-10-06T22:37:43.933Z,12.99
2018-10-06T22:40:12.974Z,12.87
2018-10-06T22:42:42.057Z,12.85
2018-10-06T22:45:11.368Z,12.91
2018-10-06T22:47:40.436Z,12.92
2018-10-06T22:50:09.468Z,12.85
2018-10-06T22:52:39.509Z,12.84
2018-10-06T22:55:08.629Z,12.74
2018-10-06T22:57:37.682Z,12.73
2018-10-06T23:00:06.908Z,12.71
2018-10-06T23:02:36.396Z,12.72
2018-10-06T23:05:05.597Z,12.75
2018-10-06T23:07:34.669Z,12.69
2018-10-06T23:10:03.793Z,12.64
2018-10-06T23:12:32.885Z,12.66
2018-10-06T23:15:02.003Z,12.64
2018-10-06T23:17:31.020Z,12.61
2018-10-06T23:20:00.089Z,12.56
2018-10-06T23:22:29.152Z,12.49
2018-10-06T23:24:58.465Z,12.35
2018-10-06T23:27:27.561Z,12.27
2018-10-06T23:29:56.644Z,12.30
2018-10-06T23:32:26.059Z,12.28
2018-10-06T23:34:55.069Z,12.20
2018-10-06T23:37:24.272Z,12.20
2018-10-06T23:39:53.332Z,12.17
2018-10-06T23:42:22.436Z,12.10
2018-10-06T23:44:51.472Z,12.06
2018-10-06T23:47:20.609Z,12.14
2018-10-06T23:49:49.720Z,12.05
2018-10-06T23:52:18.801Z,12.04
2018-10-06T23:54:47.868Z,12.01
2018-10-06T23:57:16.964Z,11.95
2018-10-06T23:59:45.968Z,12.01
